Time;durP1;ratioP1;P1;durP2;ratioP2;P2;SDS_P1;SDS_P2;PMS_P1;PMS_P2;Temp;Humidity;BMP_temperature;BMP_pressure;BME280_temperature;BME280_humidity;BME280_pressure;Samples;Min_cycle;Max_cycle;Signal;HPM_P1;HPM_P2
2023/06/13 00:01:48;;;;;;;11.23;6.63;;;;;;;17.28;67.82;93413.53;4976081;28;20029;-73
2023/06/13 00:04:21;;;;;;;13.75;8.52;;;;;;;17.22;68.60;93409.63;4978450;28;20112;-73
2023/06/13 00:06:48;;;;;;;13.43;6.50;;;;;;;17.16;67.84;93384.97;4978146;28;20034;-73
2023/06/13 00:09:15;;;;;;;10.65;6.70;;;;;;;17.16;68.06;93388.44;4975034;28;20042;-73
2023/06/13 00:11:40;;;;;;;12.13;6.75;;;;;;;17.34;67.90;93410.19;4977192;28;20042;-73
2023/06/13 00:14:06;;;;;;;13.55;6.93;;;;;;;17.36;67.36;93404.41;4972669;28;20030;-74
2023/06/13 00:16:32;;;;;;;7.53;6.15;;;;;;;17.26;67.22;93386.28;4978402;28;20392;-74
2023/06/13 00:18:58;;;;;;;4.82;4.22;;;;;;;17.17;67.24;93384.63;4975748;28;20062;-73
2023/06/13 00:21:24;;;;;;;7.40;5.38;;;;;;;17.13;67.97;93394.53;4975894;28;20524;-74
2023/06/13 00:23:49;;;;;;;13.25;6.80;;;;;;;17.13;68.26;93374.94;4976939;28;20034;-73
2023/06/13 00:26:14;;;;;;;16.13;8.00;;;;;;;17.17;68.43;93392.69;4978947;28;20614;-73
2023/06/13 00:28:40;;;;;;;26.75;11.20;;;;;;;17.21;67.93;93389.28;4972260;28;20316;-74
2023/06/13 00:31:05;;;;;;;13.02;8.00;;;;;;;17.14;67.93;93388.03;4975127;28;20464;-73
2023/06/13 00:33:31;;;;;;;14.32;9.32;;;;;;;17.18;68.07;93398.81;4976153;28;20038;-73
2023/06/13 00:35:56;;;;;;;9.35;6.07;;;;;;;17.23;67.96;93397.72;4976141;28;20125;-73
2023/06/13 00:38:23;;;;;;;26.38;12.13;;;;;;;17.03;68.00;93376.34;4975068;28;20476;-74
2023/06/13 00:40:49;;;;;;;30.48;14.85;;;;;;;17.10;67.86;93403.31;4975460;28;20053;-74
2023/06/13 00:43:17;;;;;;;20.30;9.45;;;;;;;17.09;67.34;93376.81;4977314;28;20025;-74
2023/06/13 00:45:42;;;;;;;29.77;11.75;;;;;;;17.04;67.71;93377.91;4976552;28;20041;-73
2023/06/13 00:48:09;;;;;;;19.33;10.65;;;;;;;17.08;67.91;93384.09;4975742;28;20054;-73
2023/06/13 00:50:40;;;;;;;7.78;6.32;;;;;;;17.09;67.81;93396.38;4975750;28;20038;-73
2023/06/13 00:53:11;;;;;;;13.30;5.28;;;;;;;17.14;67.38;93392.63;4975987;28;20507;-74
2023/06/13 00:55:37;;;;;;;9.98;4.65;;;;;;;16.97;67.56;93377.78;4974221;28;20070;-73
2023/06/13 00:58:06;;;;;;;4.45;4.05;;;;;;;17.05;67.21;93395.56;4977054;28;20027;-73
2023/06/13 01:00:34;;;;;;;6.80;4.47;;;;;;;17.02;67.30;93387.44;4975800;28;20034;-74
2023/06/13 01:03:02;;;;;;;5.03;4.50;;;;;;;16.93;67.47;93371.59;4975159;28;20034;-74
2023/06/13 01:05:28;;;;;;;5.43;4.93;;;;;;;16.96;66.77;93365.53;4968396;28;20181;-73
2023/06/13 01:08:01;;;;;;;7.57;4.60;;;;;;;16.93;66.74;93371.59;4974956;28;20042;-73
2023/06/13 01:10:29;;;;;;;6.93;4.50;;;;;;;17.01;66.75;93380.53;4976348;28;20112;-73
2023/06/13 01:13:04;;;;;;;7.72;4.00;;;;;;;17.05;66.26;93384.03;4975476;28;20389;-73
2023/06/13 01:15:33;;;;;;;5.30;3.90;;;;;;;16.97;66.32;93385.06;4976258;28;20038;-74
2023/06/13 01:18:00;;;;;;;8.38;4.00;;;;;;;16.90;66.27;93393.81;4975437;28;20054;-73
2023/06/13 01:20:32;;;;;;;4.95;3.65;;;;;;;16.88;66.12;93387.25;4980028;28;20100;-73
2023/06/13 01:22:57;;;;;;;4.53;4.13;;;;;;;16.86;66.09;93386.84;4979521;28;20050;-73
2023/06/13 01:26:00;;;;;;;3.83;3.53;;;;;;;16.81;66.07;93395.22;4980035;28;20578;-73
2023/06/13 01:28:32;;;;;;;6.53;4.25;;;;;;;16.59;66.24;93378.00;4982053;28;20516;-73
2023/06/13 01:30:59;;;;;;;7.28;3.65;;;;;;;16.62;65.89;93367.31;4980411;28;20027;-73
2023/06/13 01:33:25;;;;;;;3.97;3.33;;;;;;;16.67;65.90;93388.47;4979903;28;20050;-74
2023/06/13 01:35:51;;;;;;;7.20;4.55;;;;;;;16.64;66.06;93391.91;4980319;28;20122;-74
2023/06/13 01:38:17;;;;;;;7.50;4.95;;;;;;;16.64;66.00;93391.91;4979185;28;20042;-73
2023/06/13 01:40:42;;;;;;;5.57;3.75;;;;;;;16.44;66.14;93376.22;4980304;28;20092;-73
2023/06/13 01:43:08;;;;;;;5.97;4.28;;;;;;;16.57;65.98;93396.41;4978294;28;20639;-74
2023/06/13 01:45:34;;;;;;;4.95;4.45;;;;;;;16.59;66.06;93391.44;4980701;28;20049;-73
2023/06/13 01:48:22;;;;;;;7.90;4.50;;;;;;;16.59;66.05;93386.06;4978719;28;20038;-73
2023/06/13 01:50:54;;;;;;;7.80;5.38;;;;;;;16.50;65.86;93380.16;4980679;28;20544;-73
2023/06/13 01:53:31;;;;;;;8.88;5.25;;;;;;;16.58;65.75;93395.25;4980574;28;20050;-73
2023/06/13 01:56:01;;;;;;;7.32;4.32;;;;;;;16.58;65.51;93387.19;4992325;28;20522;-73
2023/06/13 01:58:34;;;;;;;6.47;3.75;;;;;;;16.55;65.37;93391.38;4980544;28;20378;-74
2023/06/13 02:01:06;;;;;;;6.38;5.28;;;;;;;16.52;65.41;93389.44;4978033;28;20048;-73
2023/06/13 02:03:32;;;;;;;6.50;4.53;;;;;;;16.54;65.45;93386.38;4976679;28;20045;-74
2023/06/13 02:05:58;;;;;;;6.97;4.30;;;;;;;16.47;65.46;93391.63;4977857;28;20401;-74
2023/06/13 02:08:23;;;;;;;5.57;3.40;;;;;;;16.48;65.19;93387.78;4979040;28;20043;-74
2023/06/13 02:10:49;;;;;;;3.92;2.90;;;;;;;16.43;65.06;93382.75;4977698;28;20113;-74
2023/06/13 02:13:14;;;;;;;5.97;3.22;;;;;;;16.36;65.15;93388.00;4979300;28;20302;-73
2023/06/13 02:15:40;;;;;;;4.45;2.95;;;;;;;16.23;65.43;93374.72;4970059;28;20519;-74
2023/06/13 02:18:06;;;;;;;6.32;3.03;;;;;;;16.20;65.55;93377.34;4979324;28;20034;-73
2023/06/13 02:20:32;;;;;;;4.13;3.42;;;;;;;16.22;65.40;93377.78;4977996;28;20400;-74
2023/06/13 02:22:57;;;;;;;4.28;3.03;;;;;;;16.10;65.81;93364.53;4979570;28;20041;-73
2023/06/13 02:25:23;;;;;;;14.07;3.65;;;;;;;16.21;65.75;93366.28;4978593;28;20030;-74
2023/06/13 02:27:48;;;;;;;4.15;3.30;;;;;;;16.25;65.62;93385.88;4976870;28;20033;-73
2023/06/13 02:30:14;;;;;;;5.13;3.40;;;;;;;16.21;65.32;93368.97;4977857;28;20038;-74
2023/06/13 02:32:42;;;;;;;4.57;3.92;;;;;;;16.30;65.35;93376.75;4979360;28;20139;-73
2023/06/13 02:35:09;;;;;;;6.40;4.53;;;;;;;16.25;65.48;93391.25;4974784;28;20069;-74
2023/06/13 02:37:35;;;;;;;5.32;3.65;;;;;;;16.25;65.61;93385.88;4978772;28;20377;-73
2023/06/13 02:40:02;;;;;;;5.03;2.90;;;;;;;16.20;65.64;93386.19;4977239;28;20076;-73
2023/06/13 02:42:28;;;;;;;3.53;3.13;;;;;;;16.17;65.82;93386.13;4977700;28;20039;-73
2023/06/13 02:44:53;;;;;;;3.92;3.28;;;;;;;16.16;65.80;93393.41;4976106;28;20393;-74
2023/06/13 02:47:21;;;;;;;6.35;3.60;;;;;;;16.10;66.17;93392.16;4980602;28;20061;-73
2023/06/13 02:49:46;;;;;;;3.47;3.17;;;;;;;16.21;65.89;93395.78;4975038;28;20038;-73
2023/06/13 02:52:12;;;;;;;4.63;3.63;;;;;;;16.05;65.77;93375.56;4979673;28;20106;-73
2023/06/13 02:54:37;;;;;;;5.00;2.95;;;;;;;15.97;66.17;93373.91;4976036;28;20034;-72
2023/06/13 02:57:03;;;;;;;4.15;3.45;;;;;;;16.11;66.49;93396.38;4976849;28;20568;-73
2023/06/13 02:59:28;;;;;;;7.18;4.07;;;;;;;16.05;66.91;93408.53;4977500;28;20038;-73
2023/06/13 03:01:53;;;;;;;4.45;3.42;;;;;;;16.01;66.56;93386.25;4978669;28;20038;-73
2023/06/13 03:04:19;;;;;;;5.75;4.80;;;;;;;16.11;66.35;93409.78;4976250;28;20037;-73
2023/06/13 03:06:46;;;;;;;4.35;3.92;;;;;;;16.08;66.67;93407.84;4980478;28;20069;-73
2023/06/13 03:09:11;;;;;;;13.65;4.05;;;;;;;16.10;66.07;93394.84;4975147;28;20140;-74
2023/06/13 03:11:37;;;;;;;4.90;3.65;;;;;;;16.19;66.30;93414.13;4978906;28;20084;-73
2023/06/13 03:14:02;;;;;;;4.68;3.85;;;;;;;16.11;66.39;93404.44;4974700;28;20045;-74
2023/06/13 03:16:28;;;;;;;3.60;3.22;;;;;;;16.10;66.36;93394.84;4978431;28;20033;-73
2023/06/13 03:18:54;;;;;;;4.82;3.75;;;;;;;16.26;65.97;93403.53;4974338;28;20604;-73
2023/06/13 03:21:20;;;;;;;6.47;3.72;;;;;;;16.20;66.30;93398.81;4978725;28;20592;-73
2023/06/13 03:23:46;;;;;;;5.90;4.03;;;;;;;16.22;66.92;93409.97;4977345;28;20038;-73
2023/06/13 03:26:12;;;;;;;4.95;4.45;;;;;;;16.30;67.01;93414.31;4977551;28;20570;-74
2023/06/13 03:28:37;;;;;;;14.85;4.75;;;;;;;16.20;67.14;93396.13;4975743;28;20026;-73
2023/06/13 03:31:04;;;;;;;8.60;5.80;;;;;;;16.13;67.60;93394.13;4978044;28;20469;-73
2023/06/13 03:33:29;;;;;;;7.75;5.28;;;;;;;16.20;67.69;93394.25;4977272;28;20034;-74
2023/06/13 03:35:55;;;;;;;12.38;6.65;;;;;;;16.31;67.79;93403.28;4978100;28;20736;-73
2023/06/13 03:38:20;;;;;;;5.88;5.28;;;;;;;16.26;68.12;93392.81;4977063;28;20046;-73
2023/06/13 03:40:46;;;;;;;8.48;6.03;;;;;;;16.27;68.57;93398.94;4975877;28;20502;-73
2023/06/13 03:43:12;;;;;;;8.75;5.70;;;;;;;16.33;68.57;93403.69;4975337;28;20030;-73
2023/06/13 03:45:37;;;;;;;7.55;5.07;;;;;;;16.24;68.65;93392.38;4977961;28;20035;-73
2023/06/13 03:48:03;;;;;;;8.90;6.00;;;;;;;16.33;68.90;93409.03;4976645;28;20208;-73
2023/06/13 03:50:28;;;;;;;9.90;7.57;;;;;;;16.27;69.38;93404.31;4977093;28;20543;-73
2023/06/13 03:52:54;;;;;;;7.50;6.72;;;;;;;16.41;69.10;93418.00;4978255;28;20492;-73
2023/06/13 03:55:19;;;;;;;6.70;5.85;;;;;;;16.46;68.98;93422.28;4974742;28;20145;-73
2023/06/13 03:57:45;;;;;;;12.90;7.25;;;;;;;16.41;68.82;93415.31;4977523;28;20101;-73
2023/06/13 04:00:11;;;;;;;8.98;6.57;;;;;;;16.46;68.21;93411.56;4972620;28;20034;-73
2023/06/13 04:02:37;;;;;;;8.65;6.97;;;;;;;16.52;68.21;93421.63;4977336;28;20069;-74
2023/06/13 04:05:03;;;;;;;11.55;7.22;;;;;;;16.48;68.68;93414.63;4974693;28;20464;-74
2023/06/13 04:07:33;;;;;;;9.20;7.20;;;;;;;16.59;68.66;93426.31;4992288;28;20535;-74
2023/06/13 04:10:02;;;;;;;13.30;8.50;;;;;;;16.57;68.45;93415.97;4977440;28;20037;-72
2023/06/13 04:12:31;;;;;;;11.85;8.40;;;;;;;16.62;68.56;93417.56;4975769;28;20057;-74
2023/06/13 04:14:59;;;;;;;7.97;7.18;;;;;;;16.68;68.59;93418.78;4977781;28;20041;-73
2023/06/13 04:17:25;;;;;;;10.52;7.80;;;;;;;16.77;68.80;93428.16;4976596;28;20324;-73
2023/06/13 04:19:51;;;;;;;10.48;7.70;;;;;;;16.74;69.02;93412.75;4976028;28;20049;-73
2023/06/13 04:22:19;;;;;;;16.88;10.63;;;;;;;16.76;68.85;93412.41;4977341;28;20022;-73
2023/06/13 04:24:45;;;;;;;16.75;10.73;;;;;;;16.93;68.36;93428.00;4977196;28;20034;-74
2023/06/13 04:27:13;;;;;;;12.25;9.60;;;;;;;17.00;67.87;93430.03;4975055;28;20565;-73
2023/06/13 04:29:42;;;;;;;15.32;10.40;;;;;;;16.94;68.04;93426.88;4978159;28;20047;-73
2023/06/13 04:32:12;;;;;;;17.08;9.63;;;;;;;17.23;67.15;93430.75;4976795;28;20121;-73
2023/06/13 04:34:41;;;;;;;16.23;10.38;;;;;;;17.24;66.75;93442.28;4976397;28;20085;-73
2023/06/13 04:37:06;;;;;;;16.45;10.90;;;;;;;17.21;67.72;93433.03;4975054;28;20220;-73
2023/06/13 04:39:32;;;;;;;15.75;10.68;;;;;;;17.33;67.29;93448.16;4977173;28;20041;-73
2023/06/13 04:42:01;;;;;;;19.45;10.13;;;;;;;17.29;67.33;93441.97;4975049;28;20039;-73
2023/06/13 04:44:27;;;;;;;18.55;11.02;;;;;;;17.11;67.19;93431.72;4977856;28;20031;-74
2023/06/13 04:46:57;;;;;;;15.98;10.45;;;;;;;17.40;65.67;93442.91;4975169;28;20038;-74
2023/06/13 04:49:23;;;;;;;18.92;11.85;;;;;;;17.09;68.12;93431.31;4976742;28;20026;-73
2023/06/13 04:51:49;;;;;;;18.17;12.77;;;;;;;17.31;67.40;93455.81;4977356;28;20073;-74
2023/06/13 04:54:15;;;;;;;14.45;11.82;;;;;;;17.48;66.48;93448.00;4976634;28;20617;-73
2023/06/13 04:56:41;;;;;;;19.35;13.68;;;;;;;17.31;67.19;93453.13;4975008;28;20050;-73
2023/06/13 04:59:07;;;;;;;17.42;12.35;;;;;;;17.40;66.85;93432.91;4975377;28;20528;-73
2023/06/13 05:01:32;;;;;;;19.40;12.68;;;;;;;17.48;67.49;93448.00;4972948;28;20337;-72
2023/06/13 05:03:58;;;;;;;20.92;11.80;;;;;;;17.50;68.55;93448.38;4973842;28;20113;-73
2023/06/13 05:06:23;;;;;;;18.02;12.18;;;;;;;17.82;68.39;93458.78;4977807;28;20142;-73
2023/06/13 05:08:49;;;;;;;21.65;13.80;;;;;;;17.73;68.09;93444.84;4973677;28;20145;-75
2023/06/13 05:11:15;;;;;;;25.08;12.85;;;;;;;17.92;67.64;93456.19;4987852;28;20129;-73
2023/06/13 05:13:40;;;;;;;19.63;12.95;;;;;;;17.93;64.37;93455.09;4974722;28;20124;-75
2023/06/13 05:16:05;;;;;;;16.50;11.77;;;;;;;17.91;65.34;93457.34;4973643;28;20325;-73
2023/06/13 05:18:32;;;;;;;16.25;11.10;;;;;;;17.97;64.25;93447.06;4976526;28;20398;-74
2023/06/13 05:21:00;;;;;;;14.73;10.77;;;;;;;18.19;64.88;93445.34;4973943;28;20349;-74
2023/06/13 05:23:26;;;;;;;14.20;9.38;;;;;;;17.98;63.56;93422.50;4968712;28;20643;-73
2023/06/13 05:25:52;;;;;;;14.20;10.57;;;;;;;18.24;63.76;93450.41;4973228;28;20046;-74
2023/06/13 05:28:18;;;;;;;14.35;10.38;;;;;;;18.41;62.72;93460.56;4975839;28;20378;-75
2023/06/13 05:30:44;;;;;;;15.38;11.07;;;;;;;18.45;63.99;93443.31;4968940;28;20038;-74
2023/06/13 05:33:10;;;;;;;12.88;10.20;;;;;;;18.71;61.56;93452.41;4972298;28;20045;-74
2023/06/13 05:35:36;;;;;;;16.08;11.77;;;;;;;18.50;62.29;93449.50;4972202;28;20564;-74
2023/06/13 05:38:01;;;;;;;15.02;11.18;;;;;;;18.48;63.87;93453.31;4973422;28;20414;-74
2023/06/13 05:40:26;;;;;;;20.48;10.98;;;;;;;18.50;62.55;93449.50;4972669;28;20121;-73
2023/06/13 05:42:52;;;;;;;15.10;11.00;;;;;;;18.53;61.76;93454.16;4974775;28;20527;-74
2023/06/13 05:45:17;;;;;;;14.65;11.32;;;;;;;18.46;61.75;93457.56;4973275;28;20050;-74
2023/06/13 05:47:43;;;;;;;17.88;12.48;;;;;;;18.28;62.89;93421.63;4975903;28;20038;-74
2023/06/13 05:50:08;;;;;;;16.65;11.45;;;;;;;18.17;62.96;93448.44;4975669;28;20038;-73
2023/06/13 05:52:34;;;;;;;15.82;11.57;;;;;;;18.44;62.90;93459.81;4973461;28;20432;-74
2023/06/13 05:55:00;;;;;;;14.07;10.75;;;;;;;18.39;62.57;93465.56;4971524;28;20670;-74
2023/06/13 05:57:37;;;;;;;17.70;12.23;;;;;;;18.33;63.49;93467.06;4976226;28;20074;-74
2023/06/13 06:00:05;;;;;;;14.68;11.43;;;;;;;18.51;62.94;93472.59;4973309;28;20153;-74
2023/06/13 06:02:30;;;;;;;15.00;10.82;;;;;;;18.63;60.35;93461.53;4973899;28;20089;-75
2023/06/13 06:05:00;;;;;;;14.20;11.27;;;;;;;18.83;60.61;93452.13;4975730;28;20044;-74
2023/06/13 06:07:25;;;;;;;12.95;9.75;;;;;;;18.80;61.27;93458.25;4977914;28;20100;-74
2023/06/13 06:09:51;;;;;;;15.10;11.27;;;;;;;18.55;60.45;93441.09;4978474;28;20735;-74
2023/06/13 06:12:16;;;;;;;18.15;11.07;;;;;;;18.66;62.56;93469.66;4975641;28;20218;-74
2023/06/13 06:14:41;;;;;;;14.60;10.30;;;;;;;18.67;62.33;93465.06;4978127;28;20022;-75
2023/06/13 06:17:07;;;;;;;13.82;10.80;;;;;;;18.50;62.76;93455.66;4977304;28;20030;-74
2023/06/13 06:19:32;;;;;;;13.82;10.93;;;;;;;18.56;63.63;93459.56;4977736;28;20092;-73
2023/06/13 06:21:57;;;;;;;17.05;11.13;;;;;;;18.52;63.93;93456.06;4976220;28;20034;-74
2023/06/13 06:24:23;;;;;;;15.55;11.95;;;;;;;18.92;63.11;93462.59;4980168;28;20104;-75
2023/06/13 06:26:49;;;;;;;15.50;11.93;;;;;;;18.62;63.02;93455.41;4976051;28;20050;-73
2023/06/13 06:29:14;;;;;;;22.48;11.30;;;;;;;18.83;62.95;93463.66;4973368;28;20042;-74
2023/06/13 06:31:40;;;;;;;12.82;10.38;;;;;;;18.93;62.54;93462.19;4977386;28;20385;-75
2023/06/13 06:34:05;;;;;;;14.38;10.50;;;;;;;18.76;63.42;93458.25;4976028;28;20114;-73
2023/06/13 06:36:30;;;;;;;14.80;10.52;;;;;;;18.83;63.65;93457.50;4976588;28;20460;-75
2023/06/13 06:38:56;;;;;;;13.63;11.25;;;;;;;18.63;62.89;93470.38;4979189;28;20105;-74
2023/06/13 06:41:21;;;;;;;15.68;11.25;;;;;;;18.85;62.18;93457.91;4976301;28;20436;-74
2023/06/13 06:43:46;;;;;;;13.57;10.43;;;;;;;18.91;61.49;93439.47;4977961;28;20026;-74
2023/06/13 06:46:12;;;;;;;16.02;12.50;;;;;;;19.12;61.14;93447.69;4973157;28;20048;-74
2023/06/13 06:48:38;;;;;;;13.77;11.52;;;;;;;19.16;60.53;93432.34;4977344;28;20042;-74
2023/06/13 06:51:03;;;;;;;16.48;11.93;;;;;;;19.15;60.47;93452.34;4977388;28;20430;-73
2023/06/13 06:53:29;;;;;;;17.42;11.40;;;;;;;19.15;60.96;93455.03;4975728;28;20046;-74
2023/06/13 06:55:55;;;;;;;16.27;11.98;;;;;;;19.33;58.75;93459.41;4974407;28;20069;-74
2023/06/13 06:58:20;;;;;;;15.13;10.63;;;;;;;19.17;58.48;93450.81;4976969;28;20084;-74
2023/06/13 07:00:46;;;;;;;17.05;10.98;;;;;;;19.21;60.33;93467.03;4977394;28;20038;-73
2023/06/13 07:03:11;;;;;;;15.93;11.40;;;;;;;19.06;60.41;93454.59;4974373;28;20081;-74
2023/06/13 07:05:37;;;;;;;15.57;12.38;;;;;;;18.96;60.64;93450.69;4976371;28;20319;-75
2023/06/13 07:08:02;;;;;;;17.92;11.70;;;;;;;18.88;62.41;93459.84;4977331;28;20042;-74
2023/06/13 07:10:28;;;;;;;18.88;12.68;;;;;;;18.52;62.02;93458.00;4976890;28;20030;-73
2023/06/13 07:12:53;;;;;;;14.18;11.52;;;;;;;18.41;61.70;93447.91;4975700;28;20046;-74
2023/06/13 07:15:19;;;;;;;16.90;10.68;;;;;;;18.58;62.66;93462.66;4977171;28;20044;-74
2023/06/13 07:17:44;;;;;;;17.15;10.77;;;;;;;18.93;61.79;93456.03;4975753;28;20034;-75
2023/06/13 07:20:11;;;;;;;12.70;10.32;;;;;;;18.78;61.46;93439.75;4978855;28;20938;-74
2023/06/13 07:22:36;;;;;;;17.23;10.40;;;;;;;18.86;62.03;93454.84;4974979;28;20046;-74
2023/06/13 07:25:03;;;;;;;13.00;9.88;;;;;;;19.07;61.36;93461.53;4977783;28;20109;-74
2023/06/13 07:27:28;;;;;;;10.95;8.35;;;;;;;19.08;60.86;93457.69;4974890;28;20101;-74
2023/06/13 07:29:54;;;;;;;11.68;8.32;;;;;;;18.95;62.32;93448.34;4977135;28;20046;-73
2023/06/13 07:32:19;;;;;;;13.45;8.40;;;;;;;19.05;60.93;93455.75;4976473;28;20042;-75
2023/06/13 07:34:45;;;;;;;12.10;7.93;;;;;;;18.97;60.56;93435.31;4978519;28;20022;-75
2023/06/13 07:37:10;;;;;;;16.77;9.73;;;;;;;19.06;60.24;93441.13;4974611;28;20098;-74
2023/06/13 07:39:35;;;;;;;12.35;10.02;;;;;;;19.01;60.88;93433.41;4968625;28;20132;-74
2023/06/13 07:42:01;;;;;;;12.48;11.10;;;;;;;19.12;61.12;93445.00;4973746;28;20045;-74
2023/06/13 07:44:26;;;;;;;14.85;11.15;;;;;;;19.07;61.22;93421.88;4975285;28;20509;-73
2023/06/13 07:46:51;;;;;;;12.30;9.73;;;;;;;19.29;60.44;93437.03;4971331;28;20757;-73
2023/06/13 07:49:17;;;;;;;15.40;10.55;;;;;;;19.39;59.54;93435.56;4969911;28;20026;-74
2023/06/13 07:51:43;;;;;;;10.63;9.15;;;;;;;19.45;58.93;93449.47;4986447;28;20046;-74
2023/06/13 07:54:08;;;;;;;13.50;9.50;;;;;;;19.44;59.30;93456.00;4975462;28;20517;-74
2023/06/13 07:56:33;;;;;;;14.07;9.35;;;;;;;19.44;59.23;93445.97;4975157;28;20089;-73
2023/06/13 07:58:59;;;;;;;13.07;10.35;;;;;;;19.48;59.62;93454.88;4974792;28;20503;-74
2023/06/13 08:01:24;;;;;;;14.55;10.68;;;;;;;19.40;58.96;93431.72;4976572;28;20650;-74
2023/06/13 08:03:50;;;;;;;13.38;9.93;;;;;;;19.32;57.99;93441.66;4976386;28;20038;-74
2023/06/13 08:06:15;;;;;;;14.63;10.68;;;;;;;19.19;57.21;93439.66;4971808;28;20078;-74
2023/06/13 08:08:41;;;;;;;13.38;9.73;;;;;;;19.29;59.58;93436.25;4963593;28;20097;-74
2023/06/13 08:11:06;;;;;;;13.07;9.48;;;;;;;19.47;58.19;93441.78;4974566;28;20034;-74
2023/06/13 08:13:32;;;;;;;14.45;11.65;;;;;;;19.44;58.45;93450.59;4975879;28;20064;-74
2023/06/13 08:15:57;;;;;;;12.05;10.80;;;;;;;19.42;58.50;93436.69;4975983;28;20042;-75
2023/06/13 08:18:22;;;;;;;19.92;12.80;;;;;;;19.48;57.88;93435.22;4977366;28;20034;-73
2023/06/13 08:20:48;;;;;;;16.13;10.93;;;;;;;19.47;58.85;93442.53;4975220;28;20073;-72
2023/06/13 08:23:14;;;;;;;14.93;11.65;;;;;;;19.31;59.49;93439.38;4974946;28;20418;-73
2023/06/13 08:25:41;;;;;;;17.38;11.27;;;;;;;19.47;58.18;93447.16;4974838;28;20112;-74
2023/06/13 08:28:07;;;;;;;15.20;11.95;;;;;;;19.38;58.87;93428.59;4975142;28;20045;-74
2023/06/13 08:30:33;;;;;;;14.27;11.57;;;;;;;19.59;57.36;93434.16;4973495;28;20031;-74
2023/06/13 08:33:01;;;;;;;14.60;11.65;;;;;;;19.56;58.39;93434.88;4973309;28;20038;-73
2023/06/13 08:35:27;;;;;;;15.77;12.05;;;;;;;19.47;58.59;93447.16;4974125;28;20034;-73
2023/06/13 08:37:52;;;;;;;15.93;13.15;;;;;;;19.54;58.84;93439.13;4973069;28;20042;-73
2023/06/13 08:40:19;;;;;;;26.00;13.40;;;;;;;19.62;57.40;93440.69;4973952;28;20607;-73
2023/06/13 08:42:45;;;;;;;15.18;13.20;;;;;;;19.59;58.03;93444.94;4972860;28;20122;-74
2023/06/13 08:45:11;;;;;;;20.13;12.38;;;;;;;19.49;58.27;93423.31;4974064;28;20046;-73
2023/06/13 08:47:38;;;;;;;15.20;12.82;;;;;;;19.59;58.52;93438.75;4976502;28;20642;-74
2023/06/13 08:50:04;;;;;;;17.50;12.50;;;;;;;19.61;58.79;93426.44;4976711;28;20042;-73
2023/06/13 08:52:40;;;;;;;18.27;13.90;;;;;;;19.63;57.30;93407.94;4977504;28;20586;-74
2023/06/13 08:55:12;;;;;;;16.88;13.30;;;;;;;19.81;57.39;93429.59;4975123;28;20140;-74
2023/06/13 08:57:39;;;;;;;17.00;12.68;;;;;;;19.66;57.62;93436.06;4984534;28;20578;-74
2023/06/13 09:00:09;;;;;;;19.02;14.40;;;;;;;19.61;59.70;93437.22;4975697;28;20084;-73
2023/06/13 09:02:35;;;;;;;22.33;14.02;;;;;;;19.59;60.01;93431.44;4984994;28;20604;-73
2023/06/13 09:05:00;;;;;;;12.63;10.95;;;;;;;19.73;57.66;93436.91;4987382;28;20125;-74
2023/06/13 09:07:27;;;;;;;16.73;12.18;;;;;;;19.58;57.43;93440.69;4975727;28;20531;-74
2023/06/13 09:09:53;;;;;;;18.33;12.00;;;;;;;19.58;57.95;93437.97;4976229;28;20517;-74
2023/06/13 09:12:19;;;;;;;16.98;11.50;;;;;;;19.62;58.31;93438.78;4973566;28;20054;-73
2023/06/13 09:14:46;;;;;;;14.10;12.05;;;;;;;19.62;57.35;93427.19;4975400;28;20038;-75
2023/06/13 09:17:12;;;;;;;14.25;11.48;;;;;;;19.64;58.12;93424.91;4972804;28;20504;-73
2023/06/13 09:19:37;;;;;;;14.18;11.70;;;;;;;19.78;57.65;93440.38;4977083;28;20073;-74
2023/06/13 09:22:03;;;;;;;13.88;9.45;;;;;;;19.37;60.69;93448.63;4974219;28;20042;-74
2023/06/13 09:24:31;;;;;;;17.90;8.70;;;;;;;19.63;60.83;93448.41;4976269;28;20112;-74
2023/06/13 09:26:57;;;;;;;11.48;8.00;;;;;;;19.10;62.74;93450.00;4972951;28;20049;-74
2023/06/13 09:29:33;;;;;;;9.57;6.30;;;;;;;18.88;63.26;93444.47;4976245;28;20065;-74
2023/06/13 09:31:59;;;;;;;9.52;6.10;;;;;;;18.87;63.22;93442.91;4973907;28;20049;-73
2023/06/13 09:34:28;;;;;;;10.00;6.90;;;;;;;19.00;63.58;93456.09;4976379;28;20022;-73
2023/06/13 09:36:59;;;;;;;6.60;5.75;;;;;;;19.00;63.33;93438.00;4975446;28;20498;-73
2023/06/13 09:39:27;;;;;;;6.97;6.28;;;;;;;19.15;62.41;93457.75;4970148;28;20042;-74
2023/06/13 09:42:01;;;;;;;9.10;5.38;;;;;;;19.08;62.89;93453.06;4979287;28;20066;-74
2023/06/13 09:44:29;;;;;;;7.70;5.60;;;;;;;18.99;63.26;93441.84;4976282;28;20053;-73
2023/06/13 09:46:55;;;;;;;9.43;5.45;;;;;;;19.03;63.46;93449.94;4978586;28;20039;-74
2023/06/13 09:49:20;;;;;;;6.63;5.13;;;;;;;19.13;63.24;93451.94;4975107;28;20415;-74
2023/06/13 09:51:46;;;;;;;9.15;6.03;;;;;;;19.24;63.88;93450.09;4977807;28;20496;-73
2023/06/13 09:54:13;;;;;;;10.80;6.40;;;;;;;19.10;64.11;93423.84;4976665;28;20034;-74
2023/06/13 09:56:43;;;;;;;10.10;7.63;;;;;;;19.29;63.53;93438.97;4979581;28;20509;-74
2023/06/13 09:59:15;;;;;;;7.93;6.30;;;;;;;19.39;63.38;93445.56;4977916;28;20042;-74
2023/06/13 10:01:41;;;;;;;7.97;7.10;;;;;;;19.36;63.28;93430.91;4977604;28;20026;-73
2023/06/13 10:04:06;;;;;;;9.70;6.50;;;;;;;19.54;62.06;93439.91;4979378;28;20080;-74
2023/06/13 10:06:32;;;;;;;6.43;5.72;;;;;;;19.47;62.89;93431.75;4976600;28;20104;-73
2023/06/13 10:08:57;;;;;;;11.18;7.90;;;;;;;19.33;63.65;93437.81;4977028;28;20062;-74
2023/06/13 10:11:27;;;;;;;11.07;9.40;;;;;;;19.47;62.72;93442.53;4979536;28;20539;-73
2023/06/13 10:14:01;;;;;;;12.65;9.20;;;;;;;19.49;61.82;93418.69;4976663;28;20658;-74
2023/06/13 10:16:27;;;;;;;14.27;9.65;;;;;;;19.59;59.77;93438.75;4980380;28;20509;-74
2023/06/13 10:18:54;;;;;;;8.63;6.50;;;;;;;19.49;60.28;93434.09;4977419;28;20256;-74
2023/06/13 10:21:21;;;;;;;8.70;5.95;;;;;;;19.48;60.27;93433.31;4980076;28;20765;-74
2023/06/13 10:23:49;;;;;;;7.15;6.15;;;;;;;19.35;61.28;93429.38;4977553;28;20043;-74
2023/06/13 10:26:39;;;;;;;8.65;6.30;;;;;;;19.39;61.95;93445.56;4976195;28;20065;-73
2023/06/13 10:29:19;;;;;;;7.13;6.40;;;;;;;19.24;62.56;93445.47;4972848;28;20031;-73
2023/06/13 10:32:06;;;;;;;6.57;5.38;;;;;;;19.34;62.21;93438.59;4979471;28;20030;-74
2023/06/13 10:34:46;;;;;;;11.95;6.47;;;;;;;19.38;60.89;93431.31;4976058;28;20548;-74
2023/06/13 10:37:23;;;;;;;12.63;6.20;;;;;;;19.40;61.97;93439.81;4976931;28;20042;-74
2023/06/13 10:40:04;;;;;;;10.93;7.50;;;;;;;19.47;61.82;93428.28;4973323;28;20050;-75
2023/06/13 10:42:36;;;;;;;10.98;6.85;;;;;;;19.63;61.73;93434.16;4979240;28;20592;-73
2023/06/13 10:45:14;;;;;;;8.70;6.50;;;;;;;19.63;61.14;93418.75;4976229;28;20053;-74
2023/06/13 10:47:39;;;;;;;8.98;6.95;;;;;;;19.81;61.58;93423.41;4977444;28;20497;-73
2023/06/13 10:50:06;;;;;;;13.13;7.00;;;;;;;19.87;61.01;93427.31;4977874;28;20038;-73
2023/06/13 10:52:31;;;;;;;10.77;8.88;;;;;;;19.84;60.83;93417.28;4977656;28;20037;-73
2023/06/13 10:54:58;;;;;;;9.18;8.35;;;;;;;19.80;60.69;93405.72;4977780;28;20034;-74
2023/06/13 10:57:48;;;;;;;14.02;10.00;;;;;;;19.73;59.97;93415.31;4978627;28;20088;-74
2023/06/13 11:00:28;;;;;;;11.05;9.43;;;;;;;19.69;59.71;93401.03;4975630;28;20042;-74
2023/06/13 11:03:03;;;;;;;14.63;8.45;;;;;;;19.74;60.10;93389.13;4973104;28;20297;-73
2023/06/13 11:05:29;;;;;;;;;;;;;;;19.72;60.93;93402.19;4977204;28;20481;-73
2023/06/13 11:07:55;;;;;;;11.60;9.40;;;;;;;19.74;60.79;93414.16;4975285;28;20012;-73
2023/06/13 11:10:22;;;;;;;16.35;8.38;;;;;;;19.74;61.00;93414.16;4971026;28;20598;-74
2023/06/13 11:12:47;;;;;;;13.77;8.68;;;;;;;19.66;59.68;93417.97;4964009;28;20038;-74
2023/06/13 11:15:21;;;;;;;9.73;6.93;;;;;;;19.36;58.93;93406.63;4971644;28;20041;-73
2023/06/13 11:18:04;;;;;;;9.50;7.20;;;;;;;19.54;60.34;93407.53;4976251;28;20042;-73
2023/06/13 11:20:45;;;;;;;8.75;7.50;;;;;;;19.48;61.51;93395.56;4973555;28;20077;-73
2023/06/13 11:23:13;;;;;;;10.48;7.57;;;;;;;19.58;59.82;93389.44;4975544;28;20049;-73
2023/06/13 11:25:39;;;;;;;13.63;7.05;;;;;;;19.52;61.04;93401.72;4972799;28;20120;-73